sensor_id;sensor_type;location;lat;lon;timestamp;P1;durP1;ratioP1;P2;durP2;ratioP2
8735;SDS011;4404;49.308;12.178;2022-10-17T00:00:58;0.70;;;0.70;;
8735;SDS011;4404;49.308;12.178;2022-10-17T00:07:01;0.80;;;0.80;;
8735;SDS011;4404;49.308;12.178;2022-10-17T00:13:04;0.70;;;0.70;;
8735;SDS011;4404;49.308;12.178;2022-10-17T00:19:08;0.80;;;0.80;;
8735;SDS011;4404;49.308;12.178;2022-10-17T00:25:11;0.70;;;0.70;;
8735;SDS011;4404;49.308;12.178;2022-10-17T00:31:14;0.70;;;0.70;;
8735;SDS011;4404;49.308;12.178;2022-10-17T00:37:21;0.70;;;0.70;;
8735;SDS011;4404;49.308;12.178;2022-10-17T00:43:24;0.70;;;0.70;;
8735;SDS011;4404;49.308;12.178;2022-10-17T00:49:27;0.70;;;0.70;;
8735;SDS011;4404;49.308;12.178;2022-10-17T00:55:35;0.70;;;0.70;;
8735;SDS011;4404;49.308;12.178;2022-10-17T01:01:47;0.70;;;0.70;;
8735;SDS011;4404;49.308;12.178;2022-10-17T01:08:03;0.70;;;0.70;;
8735;SDS011;4404;49.308;12.178;2022-10-17T01:14:08;0.70;;;0.70;;
8735;SDS011;4404;49.308;12.178;2022-10-17T01:20:27;0.70;;;0.70;;
8735;SDS011;4404;49.308;12.178;2022-10-17T01:33:56;0.70;;;0.70;;
8735;SDS011;4404;49.308;12.178;2022-10-17T01:40:06;0.70;;;0.70;;
8735;SDS011;4404;49.308;12.178;2022-10-17T01:46:15;0.70;;;0.70;;
8735;SDS011;4404;49.308;12.178;2022-10-17T01:52:25;0.80;;;0.80;;
8735;SDS011;4404;49.308;12.178;2022-10-17T01:58:35;0.70;;;0.70;;
8735;SDS011;4404;49.308;12.178;2022-10-17T02:04:42;0.70;;;0.70;;
8735;SDS011;4404;49.308;12.178;2022-10-17T02:10:48;0.80;;;0.80;;
8735;SDS011;4404;49.308;12.178;2022-10-17T02:17:01;0.80;;;0.80;;
8735;SDS011;4404;49.308;12.178;2022-10-17T02:23:10;0.80;;;0.80;;
8735;SDS011;4404;49.308;12.178;2022-10-17T02:29:23;0.80;;;0.80;;
8735;SDS011;4404;49.308;12.178;2022-10-17T02:35:32;0.80;;;0.80;;
8735;SDS011;4404;49.308;12.178;2022-10-17T02:41:39;0.80;;;0.80;;
8735;SDS011;4404;49.308;12.178;2022-10-17T02:47:49;0.70;;;0.70;;
8735;SDS011;4404;49.308;12.178;2022-10-17T02:54:00;0.70;;;0.70;;
8735;SDS011;4404;49.308;12.178;2022-10-17T03:00:11;0.80;;;0.80;;
8735;SDS011;4404;49.308;12.178;2022-10-17T03:06:17;0.80;;;0.80;;
8735;SDS011;4404;49.308;12.178;2022-10-17T03:12:19;0.80;;;0.80;;
8735;SDS011;4404;49.308;12.178;2022-10-17T03:18:22;0.80;;;0.80;;
8735;SDS011;4404;49.308;12.178;2022-10-17T03:24:26;0.80;;;0.80;;
8735;SDS011;4404;49.308;12.178;2022-10-17T03:30:28;0.80;;;0.80;;
8735;SDS011;4404;49.308;12.178;2022-10-17T03:36:31;0.80;;;0.80;;
8735;SDS011;4404;49.308;12.178;2022-10-17T03:42:34;0.80;;;0.80;;
8735;SDS011;4404;49.308;12.178;2022-10-17T03:48:37;0.70;;;0.70;;
8735;SDS011;4404;49.308;12.178;2022-10-17T03:54:40;0.80;;;0.80;;
8735;SDS011;4404;49.308;12.178;2022-10-17T04:00:45;0.80;;;0.80;;
8735;SDS011;4404;49.308;12.178;2022-10-17T04:06:47;0.70;;;0.70;;
8735;SDS011;4404;49.308;12.178;2022-10-17T04:12:49;0.80;;;0.80;;
8735;SDS011;4404;49.308;12.178;2022-10-17T04:18:53;0.70;;;0.70;;
8735;SDS011;4404;49.308;12.178;2022-10-17T04:24:57;0.80;;;0.80;;
8735;SDS011;4404;49.308;12.178;2022-10-17T04:31:01;0.70;;;0.70;;
8735;SDS011;4404;49.308;12.178;2022-10-17T04:37:07;0.80;;;0.80;;
8735;SDS011;4404;49.308;12.178;2022-10-17T04:43:09;0.80;;;0.80;;
8735;SDS011;4404;49.308;12.178;2022-10-17T04:49:12;0.80;;;0.80;;
8735;SDS011;4404;49.308;12.178;2022-10-17T04:55:16;0.70;;;0.70;;
8735;SDS011;4404;49.308;12.178;2022-10-17T05:01:19;0.80;;;0.80;;
8735;SDS011;4404;49.308;12.178;2022-10-17T05:07:24;0.80;;;0.80;;
8735;SDS011;4404;49.308;12.178;2022-10-17T05:13:27;0.70;;;0.70;;
8735;SDS011;4404;49.308;12.178;2022-10-17T05:19:30;0.80;;;0.80;;
8735;SDS011;4404;49.308;12.178;2022-10-17T05:25:32;0.80;;;0.80;;
8735;SDS011;4404;49.308;12.178;2022-10-17T05:31:39;0.80;;;0.80;;
8735;SDS011;4404;49.308;12.178;2022-10-17T05:37:42;0.80;;;0.80;;
8735;SDS011;4404;49.308;12.178;2022-10-17T05:43:45;0.80;;;0.80;;
8735;SDS011;4404;49.308;12.178;2022-10-17T05:49:49;0.80;;;0.80;;
8735;SDS011;4404;49.308;12.178;2022-10-17T05:55:55;0.80;;;0.80;;
8735;SDS011;4404;49.308;12.178;2022-10-17T06:01:58;0.70;;;0.70;;
8735;SDS011;4404;49.308;12.178;2022-10-17T06:08:02;0.70;;;0.70;;
8735;SDS011;4404;49.308;12.178;2022-10-17T06:14:05;0.80;;;0.80;;
8735;SDS011;4404;49.308;12.178;2022-10-17T06:20:08;0.80;;;0.80;;
8735;SDS011;4404;49.308;12.178;2022-10-17T06:26:12;0.80;;;0.80;;
8735;SDS011;4404;49.308;12.178;2022-10-17T06:32:15;0.80;;;0.80;;
8735;SDS011;4404;49.308;12.178;2022-10-17T06:38:17;0.80;;;0.80;;
8735;SDS011;4404;49.308;12.178;2022-10-17T06:44:22;0.77;;;0.77;;
8735;SDS011;4404;49.308;12.178;2022-10-17T06:50:27;0.70;;;0.70;;
8735;SDS011;4404;49.308;12.178;2022-10-17T06:56:30;0.80;;;0.80;;
8735;SDS011;4404;49.308;12.178;2022-10-17T07:02:34;0.70;;;0.70;;
8735;SDS011;4404;49.308;12.178;2022-10-17T07:08:36;0.80;;;0.80;;
8735;SDS011;4404;49.308;12.178;2022-10-17T07:14:39;0.80;;;0.80;;
8735;SDS011;4404;49.308;12.178;2022-10-17T07:20:50;0.80;;;0.80;;
8735;SDS011;4404;49.308;12.178;2022-10-17T07:26:54;0.80;;;0.80;;
8735;SDS011;4404;49.308;12.178;2022-10-17T07:32:56;0.80;;;0.80;;
8735;SDS011;4404;49.308;12.178;2022-10-17T07:39:00;0.80;;;0.80;;
8735;SDS011;4404;49.308;12.178;2022-10-17T07:45:03;0.80;;;0.80;;
8735;SDS011;4404;49.308;12.178;2022-10-17T07:51:07;0.80;;;0.80;;
8735;SDS011;4404;49.308;12.178;2022-10-17T07:57:11;0.80;;;0.80;;
8735;SDS011;4404;49.308;12.178;2022-10-17T08:03:14;0.80;;;0.80;;
8735;SDS011;4404;49.308;12.178;2022-10-17T08:09:17;0.70;;;0.70;;
8735;SDS011;4404;49.308;12.178;2022-10-17T08:15:22;0.70;;;0.70;;
8735;SDS011;4404;49.308;12.178;2022-10-17T08:21:25;0.60;;;0.60;;
8735;SDS011;4404;49.308;12.178;2022-10-17T08:27:27;0.70;;;0.70;;
8735;SDS011;4404;49.308;12.178;2022-10-17T08:33:31;0.70;;;0.70;;
8735;SDS011;4404;49.308;12.178;2022-10-17T08:39:34;0.70;;;0.70;;
8735;SDS011;4404;49.308;12.178;2022-10-17T08:45:38;0.70;;;0.70;;
8735;SDS011;4404;49.308;12.178;2022-10-17T08:51:48;0.70;;;0.70;;
8735;SDS011;4404;49.308;12.178;2022-10-17T08:57:56;0.70;;;0.70;;
8735;SDS011;4404;49.308;12.178;2022-10-17T09:04:04;0.70;;;0.70;;
8735;SDS011;4404;49.308;12.178;2022-10-17T09:10:56;0.70;;;0.70;;
8735;SDS011;4404;49.308;12.178;2022-10-17T09:17:05;0.80;;;0.80;;
8735;SDS011;4404;49.308;12.178;2022-10-17T09:23:18;0.70;;;0.70;;
8735;SDS011;4404;49.308;12.178;2022-10-17T09:29:26;0.70;;;0.70;;
8735;SDS011;4404;49.308;12.178;2022-10-17T09:35:29;0.80;;;0.80;;
8735;SDS011;4404;49.308;12.178;2022-10-17T09:41:33;0.70;;;0.70;;
8735;SDS011;4404;49.308;12.178;2022-10-17T09:47:39;0.70;;;0.70;;
8735;SDS011;4404;49.308;12.178;2022-10-17T09:53:46;0.80;;;0.80;;
8735;SDS011;4404;49.308;12.178;2022-10-17T09:59:56;0.70;;;0.70;;
8735;SDS011;4404;49.308;12.178;2022-10-17T10:06:04;0.70;;;0.70;;
8735;SDS011;4404;49.308;12.178;2022-10-17T10:12:14;0.70;;;0.70;;
8735;SDS011;4404;49.308;12.178;2022-10-17T10:18:28;0.70;;;0.70;;
8735;SDS011;4404;49.308;12.178;2022-10-17T10:24:36;0.70;;;0.70;;
8735;SDS011;4404;49.308;12.178;2022-10-17T10:30:38;0.60;;;0.60;;
8735;SDS011;4404;49.308;12.178;2022-10-17T10:36:41;0.60;;;0.60;;
8735;SDS011;4404;49.308;12.178;2022-10-17T10:42:54;0.70;;;0.70;;
8735;SDS011;4404;49.308;12.178;2022-10-17T10:48:59;0.70;;;0.70;;
8735;SDS011;4404;49.308;12.178;2022-10-17T10:55:04;0.60;;;0.60;;
8735;SDS011;4404;49.308;12.178;2022-10-17T11:01:23;0.60;;;0.60;;
8735;SDS011;4404;49.308;12.178;2022-10-17T11:07:31;0.60;;;0.60;;
8735;SDS011;4404;49.308;12.178;2022-10-17T11:13:39;0.67;;;0.67;;
8735;SDS011;4404;49.308;12.178;2022-10-17T11:19:48;0.50;;;0.50;;
8735;SDS011;4404;49.308;12.178;2022-10-17T11:26:00;0.50;;;0.50;;
8735;SDS011;4404;49.308;12.178;2022-10-17T11:32:10;0.50;;;0.50;;
8735;SDS011;4404;49.308;12.178;2022-10-17T11:38:20;0.50;;;0.50;;
8735;SDS011;4404;49.308;12.178;2022-10-17T11:44:34;0.70;;;0.70;;
8735;SDS011;4404;49.308;12.178;2022-10-17T11:50:39;0.50;;;0.50;;
8735;SDS011;4404;49.308;12.178;2022-10-17T11:56:52;0.50;;;0.50;;
8735;SDS011;4404;49.308;12.178;2022-10-17T12:03:28;0.70;;;0.70;;
8735;SDS011;4404;49.308;12.178;2022-10-17T12:09:45;0.60;;;0.60;;
8735;SDS011;4404;49.308;12.178;2022-10-17T12:15:53;0.40;;;0.40;;
8735;SDS011;4404;49.308;12.178;2022-10-17T12:21:56;0.50;;;0.50;;
8735;SDS011;4404;49.308;12.178;2022-10-17T12:28:10;0.50;;;0.50;;
8735;SDS011;4404;49.308;12.178;2022-10-17T12:34:27;0.70;;;0.70;;
8735;SDS011;4404;49.308;12.178;2022-10-17T13:00:16;0.40;;;0.40;;
8735;SDS011;4404;49.308;12.178;2022-10-17T13:06:28;0.50;;;0.50;;
8735;SDS011;4404;49.308;12.178;2022-10-17T13:12:38;0.40;;;0.40;;
8735;SDS011;4404;49.308;12.178;2022-10-17T13:18:40;0.40;;;0.40;;
8735;SDS011;4404;49.308;12.178;2022-10-17T13:24:42;0.60;;;0.60;;
8735;SDS011;4404;49.308;12.178;2022-10-17T13:30:46;0.40;;;0.40;;
8735;SDS011;4404;49.308;12.178;2022-10-17T13:36:49;0.50;;;0.50;;
8735;SDS011;4404;49.308;12.178;2022-10-17T13:42:54;0.50;;;0.50;;
8735;SDS011;4404;49.308;12.178;2022-10-17T13:49:08;0.50;;;0.50;;
8735;SDS011;4404;49.308;12.178;2022-10-17T13:55:17;0.45;;;0.45;;
8735;SDS011;4404;49.308;12.178;2022-10-17T14:01:27;0.40;;;0.40;;
8735;SDS011;4404;49.308;12.178;2022-10-17T14:07:34;0.55;;;0.55;;
8735;SDS011;4404;49.308;12.178;2022-10-17T14:13:40;0.43;;;0.43;;
8735;SDS011;4404;49.308;12.178;2022-10-17T14:19:45;0.50;;;0.50;;
8735;SDS011;4404;49.308;12.178;2022-10-17T14:26:03;0.50;;;0.50;;
8735;SDS011;4404;49.308;12.178;2022-10-17T14:32:11;0.60;;;0.60;;
8735;SDS011;4404;49.308;12.178;2022-10-17T14:38:15;0.60;;;0.60;;
8735;SDS011;4404;49.308;12.178;2022-10-17T14:44:21;0.40;;;0.40;;
8735;SDS011;4404;49.308;12.178;2022-10-17T14:50:27;0.50;;;0.50;;
8735;SDS011;4404;49.308;12.178;2022-10-17T14:56:36;0.50;;;0.50;;
8735;SDS011;4404;49.308;12.178;2022-10-17T15:02:43;0.50;;;0.50;;
8735;SDS011;4404;49.308;12.178;2022-10-17T15:08:46;0.60;;;0.60;;
8735;SDS011;4404;49.308;12.178;2022-10-17T15:14:48;0.50;;;0.50;;
8735;SDS011;4404;49.308;12.178;2022-10-17T15:20:55;0.63;;;0.63;;
8735;SDS011;4404;49.308;12.178;2022-10-17T15:26:57;0.50;;;0.50;;
8735;SDS011;4404;49.308;12.178;2022-10-17T15:33:00;0.50;;;0.50;;
8735;SDS011;4404;49.308;12.178;2022-10-17T15:39:03;0.50;;;0.50;;
8735;SDS011;4404;49.308;12.178;2022-10-17T15:45:08;0.60;;;0.60;;
8735;SDS011;4404;49.308;12.178;2022-10-17T15:51:11;0.57;;;0.57;;
8735;SDS011;4404;49.308;12.178;2022-10-17T15:57:16;0.50;;;0.50;;
8735;SDS011;4404;49.308;12.178;2022-10-17T16:03:22;0.50;;;0.50;;
8735;SDS011;4404;49.308;12.178;2022-10-17T16:09:27;0.60;;;0.60;;
8735;SDS011;4404;49.308;12.178;2022-10-17T16:15:30;0.70;;;0.70;;
8735;SDS011;4404;49.308;12.178;2022-10-17T16:21:34;0.60;;;0.60;;
8735;SDS011;4404;49.308;12.178;2022-10-17T16:27:39;0.70;;;0.70;;
8735;SDS011;4404;49.308;12.178;2022-10-17T16:33:43;0.70;;;0.70;;
8735;SDS011;4404;49.308;12.178;2022-10-17T16:39:45;0.70;;;0.70;;
8735;SDS011;4404;49.308;12.178;2022-10-17T16:45:51;0.70;;;0.70;;
8735;SDS011;4404;49.308;12.178;2022-10-17T16:51:54;0.70;;;0.70;;
8735;SDS011;4404;49.308;12.178;2022-10-17T16:57:56;0.60;;;0.60;;
8735;SDS011;4404;49.308;12.178;2022-10-17T17:03:59;0.70;;;0.70;;
8735;SDS011;4404;49.308;12.178;2022-10-17T17:10:05;0.60;;;0.60;;
8735;SDS011;4404;49.308;12.178;2022-10-17T17:16:09;0.60;;;0.60;;
8735;SDS011;4404;49.308;12.178;2022-10-17T17:22:13;0.77;;;0.77;;
8735;SDS011;4404;49.308;12.178;2022-10-17T17:28:16;0.60;;;0.60;;
8735;SDS011;4404;49.308;12.178;2022-10-17T17:34:18;0.70;;;0.70;;
8735;SDS011;4404;49.308;12.178;2022-10-17T17:40:20;0.70;;;0.70;;
8735;SDS011;4404;49.308;12.178;2022-10-17T17:46:24;0.80;;;0.80;;
8735;SDS011;4404;49.308;12.178;2022-10-17T17:52:26;0.70;;;0.70;;
8735;SDS011;4404;49.308;12.178;2022-10-17T17:58:29;0.70;;;0.70;;
8735;SDS011;4404;49.308;12.178;2022-10-17T18:04:33;0.70;;;0.70;;
8735;SDS011;4404;49.308;12.178;2022-10-17T18:10:35;0.70;;;0.70;;
8735;SDS011;4404;49.308;12.178;2022-10-17T18:16:37;0.77;;;0.77;;
8735;SDS011;4404;49.308;12.178;2022-10-17T18:22:41;0.70;;;0.70;;
8735;SDS011;4404;49.308;12.178;2022-10-17T18:28:45;0.73;;;0.73;;
8735;SDS011;4404;49.308;12.178;2022-10-17T18:34:48;0.70;;;0.70;;
8735;SDS011;4404;49.308;12.178;2022-10-17T18:41:01;0.67;;;0.67;;
8735;SDS011;4404;49.308;12.178;2022-10-17T18:47:05;0.70;;;0.70;;
8735;SDS011;4404;49.308;12.178;2022-10-17T18:53:10;0.60;;;0.60;;
8735;SDS011;4404;49.308;12.178;2022-10-17T18:59:14;0.70;;;0.70;;
8735;SDS011;4404;49.308;12.178;2022-10-17T19:05:16;0.70;;;0.70;;
8735;SDS011;4404;49.308;12.178;2022-10-17T19:11:19;0.70;;;0.70;;
8735;SDS011;4404;49.308;12.178;2022-10-17T19:17:26;0.80;;;0.80;;
8735;SDS011;4404;49.308;12.178;2022-10-17T19:23:28;0.80;;;0.80;;
8735;SDS011;4404;49.308;12.178;2022-10-17T19:29:31;0.70;;;0.70;;
8735;SDS011;4404;49.308;12.178;2022-10-17T19:35:34;0.70;;;0.70;;
8735;SDS011;4404;49.308;12.178;2022-10-17T19:41:43;0.70;;;0.70;;
8735;SDS011;4404;49.308;12.178;2022-10-17T19:47:47;0.70;;;0.70;;
8735;SDS011;4404;49.308;12.178;2022-10-17T19:53:53;0.90;;;0.90;;
8735;SDS011;4404;49.308;12.178;2022-10-17T19:59:59;0.70;;;0.70;;
8735;SDS011;4404;49.308;12.178;2022-10-17T20:06:01;0.80;;;0.80;;
8735;SDS011;4404;49.308;12.178;2022-10-17T20:12:05;0.60;;;0.60;;
8735;SDS011;4404;49.308;12.178;2022-10-17T20:18:08;0.70;;;0.70;;
8735;SDS011;4404;49.308;12.178;2022-10-17T20:24:11;0.70;;;0.70;;
8735;SDS011;4404;49.308;12.178;2022-10-17T20:30:17;0.70;;;0.70;;
8735;SDS011;4404;49.308;12.178;2022-10-17T20:36:19;0.70;;;0.70;;
8735;SDS011;4404;49.308;12.178;2022-10-17T20:42:24;0.70;;;0.70;;
8735;SDS011;4404;49.308;12.178;2022-10-17T20:48:28;0.70;;;0.70;;
8735;SDS011;4404;49.308;12.178;2022-10-17T20:54:30;0.70;;;0.70;;
8735;SDS011;4404;49.308;12.178;2022-10-17T21:00:33;0.60;;;0.60;;
8735;SDS011;4404;49.308;12.178;2022-10-17T21:06:40;0.70;;;0.70;;
8735;SDS011;4404;49.308;12.178;2022-10-17T21:12:42;0.60;;;0.60;;
8735;SDS011;4404;49.308;12.178;2022-10-17T21:18:45;0.70;;;0.70;;
8735;SDS011;4404;49.308;12.178;2022-10-17T21:24:49;0.70;;;0.70;;
8735;SDS011;4404;49.308;12.178;2022-10-17T21:30:52;0.70;;;0.70;;
8735;SDS011;4404;49.308;12.178;2022-10-17T21:36:54;0.70;;;0.70;;
8735;SDS011;4404;49.308;12.178;2022-10-17T21:42:58;0.80;;;0.80;;
8735;SDS011;4404;49.308;12.178;2022-10-17T21:49:00;0.70;;;0.70;;
8735;SDS011;4404;49.308;12.178;2022-10-17T21:55:03;0.80;;;0.80;;
8735;SDS011;4404;49.308;12.178;2022-10-17T22:01:08;0.70;;;0.70;;
8735;SDS011;4404;49.308;12.178;2022-10-17T22:07:13;0.70;;;0.70;;
8735;SDS011;4404;49.308;12.178;2022-10-17T22:13:16;0.80;;;0.80;;
8735;SDS011;4404;49.308;12.178;2022-10-17T22:19:25;0.70;;;0.70;;
8735;SDS011;4404;49.308;12.178;2022-10-17T22:25:27;0.70;;;0.70;;
8735;SDS011;4404;49.308;12.178;2022-10-17T22:31:30;0.60;;;0.60;;
8735;SDS011;4404;49.308;12.178;2022-10-17T22:37:34;0.70;;;0.70;;
8735;SDS011;4404;49.308;12.178;2022-10-17T22:43:36;0.70;;;0.70;;
8735;SDS011;4404;49.308;12.178;2022-10-17T22:49:39;0.70;;;0.70;;
8735;SDS011;4404;49.308;12.178;2022-10-17T22:55:48;0.80;;;0.80;;
8735;SDS011;4404;49.308;12.178;2022-10-17T23:01:51;0.70;;;0.70;;
8735;SDS011;4404;49.308;12.178;2022-10-17T23:07:54;0.80;;;0.80;;
8735;SDS011;4404;49.308;12.178;2022-10-17T23:13:57;0.80;;;0.80;;
8735;SDS011;4404;49.308;12.178;2022-10-17T23:20:00;0.70;;;0.70;;
8735;SDS011;4404;49.308;12.178;2022-10-17T23:26:03;0.80;;;0.80;;
8735;SDS011;4404;49.308;12.178;2022-10-17T23:32:08;0.70;;;0.70;;
8735;SDS011;4404;49.308;12.178;2022-10-17T23:38:10;0.70;;;0.70;;
8735;SDS011;4404;49.308;12.178;2022-10-17T23:44:13;0.80;;;0.80;;
8735;SDS011;4404;49.308;12.178;2022-10-17T23:50:17;0.80;;;0.80;;
8735;SDS011;4404;49.308;12.178;2022-10-17T23:56:19;0.80;;;0.80;;
